Time;durP1;ratioP1;P1;durP2;ratioP2;P2;SDS_P1;SDS_P2;PMS_P1;PMS_P2;Temp;Humidity;BMP_temperature;BMP_pressure;BME280_temperature;BME280_humidity;BME280_pressure;Samples;Min_cycle;Max_cycle;Signal;HPM_P1;HPM_P2
2023/04/16 00:00:21;;;;;;;12.65;4.57;;;;;;;13.63;100.00;100061.16;5012208;28;20503;-73
2023/04/16 00:02:46;;;;;;;13.60;5.25;;;;;;;13.42;100.00;100031.38;5012268;28;20018;-72
2023/04/16 00:05:13;;;;;;;8.95;4.13;;;;;;;13.51;100.00;100054.03;5011815;28;20026;-72
2023/04/16 00:07:39;;;;;;;15.48;4.93;;;;;;;13.30;100.00;100015.59;5011965;28;20029;-71
2023/04/16 00:10:07;;;;;;;10.73;5.13;;;;;;;13.33;100.00;100031.19;5009718;28;20447;-73
2023/04/16 00:12:32;;;;;;;13.63;4.50;;;;;;;13.46;100.00;100050.44;5011208;28;20488;-72
2023/04/16 00:14:58;;;;;;;15.88;7.25;;;;;;;13.56;100.00;100016.94;5010374;28;20072;-74
2023/04/16 00:17:23;;;;;;;13.77;5.30;;;;;;;13.88;100.00;100052.94;5012244;28;20072;-71
2023/04/16 00:19:49;;;;;;;10.75;4.65;;;;;;;13.57;100.00;100002.25;5011840;28;20469;-72
2023/04/16 00:22:14;;;;;;;11.27;4.18;;;;;;;13.80;100.00;100053.66;5011802;28;20057;-72
2023/04/16 00:24:40;;;;;;;15.63;5.07;;;;;;;13.79;100.00;100063.16;5011796;28;20519;-75
2023/04/16 00:27:05;;;;;;;10.93;4.70;;;;;;;13.80;100.00;100056.25;5011430;28;20038;-73
2023/04/16 00:29:32;;;;;;;12.23;4.28;;;;;;;13.71;100.00;100051.78;5011159;28;20021;-68
2023/04/16 00:31:58;;;;;;;14.55;4.32;;;;;;;13.75;100.00;100061.38;5010586;28;20029;-68
2023/04/16 00:34:23;;;;;;;15.90;5.05;;;;;;;13.46;100.00;100017.63;5011876;28;20045;-70
2023/04/16 00:36:49;;;;;;;9.73;4.00;;;;;;;13.61;100.00;100057.63;5011064;28;20044;-70
2023/04/16 00:39:14;;;;;;;15.40;4.40;;;;;;;13.33;100.00;100003.53;5011914;28;20052;-71
2023/04/16 00:41:40;;;;;;;9.32;4.13;;;;;;;13.67;100.00;100058.63;5009562;28;20183;-71
2023/04/16 00:44:05;;;;;;;14.52;4.38;;;;;;;13.68;100.00;100055.22;5011658;28;20030;-72
2023/04/16 00:46:31;;;;;;;15.85;4.43;;;;;;;13.64;100.00;100045.59;5011554;28;20536;-70
2023/04/16 00:49:00;;;;;;;16.20;5.25;;;;;;;13.53;100.00;100019.50;5011383;28;20033;-68
2023/04/16 00:51:25;;;;;;;9.82;4.07;;;;;;;13.81;100.00;100061.47;5011377;28;20038;-70
2023/04/16 00:53:51;;;;;;;14.80;4.95;;;;;;;13.82;100.00;100057.13;5010770;28;20026;-70
2023/04/16 00:56:17;;;;;;;11.55;4.50;;;;;;;13.85;100.00;100045.09;5010889;28;20033;-68
2023/04/16 00:58:43;;;;;;;11.73;4.85;;;;;;;13.90;100.00;100050.38;5010496;28;20033;-68
2023/04/16 01:01:09;;;;;;;14.38;4.63;;;;;;;13.66;100.00;100011.94;5011488;28;20038;-73
2023/04/16 01:03:42;;;;;;;14.18;4.75;;;;;;;13.89;100.00;100049.50;5010946;28;20028;-73
2023/04/16 01:06:08;;;;;;;9.48;4.53;;;;;;;13.91;100.00;100055.56;5010978;28;20030;-70
2023/04/16 01:08:34;;;;;;;13.05;4.60;;;;;;;13.83;100.00;100051.09;5010429;28;20530;-73
2023/04/16 01:11:00;;;;;;;12.60;4.75;;;;;;;13.86;100.00;100048.59;5010852;28;20113;-71
2023/04/16 01:13:25;;;;;;;12.18;4.70;;;;;;;13.88;100.00;100059.84;5010727;28;20033;-73
2023/04/16 01:15:51;;;;;;;13.75;5.15;;;;;;;13.82;100.00;100051.94;5011232;28;20038;-70
2023/04/16 01:18:18;;;;;;;10.90;4.30;;;;;;;13.50;100.00;100011.66;5010859;28;20022;-73
2023/04/16 01:20:45;;;;;;;10.43;4.18;;;;;;;13.75;100.00;100044.06;5010812;28;20058;-73
2023/04/16 01:23:10;;;;;;;12.32;4.25;;;;;;;13.82;100.00;100044.16;5010443;28;20127;-73
2023/04/16 01:25:36;;;;;;;8.30;4.05;;;;;;;13.82;100.00;100051.94;5010823;28;20061;-71
2023/04/16 01:28:01;;;;;;;16.92;5.13;;;;;;;13.72;100.00;100050.91;5010629;28;20029;-73
2023/04/16 01:30:27;;;;;;;13.95;4.90;;;;;;;13.63;100.00;100050.78;5009573;28;20033;-70
2023/04/16 01:32:52;;;;;;;11.48;4.90;;;;;;;13.56;100.00;100048.06;5009897;28;20084;-71
2023/04/16 01:35:18;;;;;;;15.30;5.50;;;;;;;13.51;100.00;100048.84;5010857;28;20487;-71
2023/04/16 01:37:44;;;;;;;14.32;4.75;;;;;;;13.51;100.00;100038.47;5010497;28;20483;-71
2023/04/16 01:40:09;;;;;;;12.93;5.47;;;;;;;13.52;100.00;100038.50;5010687;28;20091;-69
2023/04/16 01:42:36;;;;;;;12.48;5.13;;;;;;;13.48;100.00;100035.81;5011261;28;20026;-71
2023/04/16 01:45:02;;;;;;;8.77;4.93;;;;;;;13.42;100.00;100029.66;5011130;28;20029;-71
2023/04/16 01:47:27;;;;;;;14.68;5.13;;;;;;;13.33;100.00;100029.44;5010607;28;20034;-72
2023/04/16 01:49:53;;;;;;;14.02;5.80;;;;;;;13.37;100.00;100043.34;5011155;28;20038;-69
2023/04/16 01:52:18;;;;;;;13.20;5.30;;;;;;;13.35;100.00;100038.13;5009440;28;20054;-71
2023/04/16 01:54:44;;;;;;;14.13;5.78;;;;;;;13.30;100.00;100024.22;5010847;28;20025;-70
2023/04/16 01:57:10;;;;;;;16.98;5.57;;;;;;;13.34;100.00;100036.38;5010798;28;20030;-72
2023/04/16 01:59:35;;;;;;;11.10;4.90;;;;;;;13.31;100.00;100036.34;5025223;28;20034;-72
2023/04/16 02:02:09;;;;;;;8.95;4.78;;;;;;;13.21;100.00;100024.91;5010890;28;20041;-69
2023/04/16 02:04:39;;;;;;;10.85;5.43;;;;;;;13.20;100.00;100019.72;5010778;28;20033;-72
2023/04/16 02:07:05;;;;;;;;;;;;;;;13.30;100.00;100029.41;5010857;28;20034;-74
2023/04/16 02:09:30;;;;;;;23.95;9.88;;;;;;;13.36;100.00;100039.88;5010711;28;19964;-74
2023/04/16 02:11:56;;;;;;;21.60;9.63;;;;;;;13.07;100.00;99971.94;5010837;28;20075;-71
2023/04/16 02:14:24;;;;;;;20.45;8.52;;;;;;;13.43;100.00;100028.81;5010602;28;20519;-71
2023/04/16 02:16:50;;;;;;;13.70;7.35;;;;;;;13.41;100.00;100024.47;5010894;28;20030;-75
2023/04/16 02:19:15;;;;;;;15.55;6.57;;;;;;;13.27;100.00;99987.84;5010911;28;20033;-71
2023/04/16 02:21:41;;;;;;;18.55;7.28;;;;;;;13.28;100.00;100028.50;5010526;28;20503;-73
2023/04/16 02:24:07;;;;;;;13.07;5.68;;;;;;;12.97;100.00;100037.41;5010883;28;20030;-72
2023/04/16 02:26:32;;;;;;;13.68;6.47;;;;;;;12.97;100.00;100038.25;5005772;28;20038;-77
2023/04/16 02:28:57;;;;;;;14.55;6.55;;;;;;;12.97;100.00;100033.06;5010802;28;20037;-72
2023/04/16 02:31:23;;;;;;;12.45;6.65;;;;;;;13.01;100.00;100028.84;5010570;28;20033;-75
2023/04/16 02:33:48;;;;;;;11.93;6.40;;;;;;;13.06;100.00;100032.38;5008325;28;20048;-70
2023/04/16 02:36:14;;;;;;;14.13;6.43;;;;;;;13.01;100.00;100005.50;5010857;28;20076;-71
2023/04/16 02:38:39;;;;;;;12.00;6.07;;;;;;;13.13;100.00;100021.28;5010695;28;20034;-73
2023/04/16 02:41:05;;;;;;;12.65;5.07;;;;;;;12.92;100.00;99990.66;5010578;28;20058;-71
2023/04/16 02:43:30;;;;;;;15.43;5.55;;;;;;;13.14;100.00;100028.25;5010339;28;20045;-72
2023/04/16 02:45:58;;;;;;;15.63;5.70;;;;;;;13.11;100.00;100026.47;5010300;28;20034;-72
2023/04/16 02:48:23;;;;;;;11.20;5.25;;;;;;;12.67;100.00;99981.53;5010236;28;20034;-73
2023/04/16 02:50:48;;;;;;;11.23;5.47;;;;;;;12.85;100.00;100022.50;5010451;28;20084;-72
2023/04/16 02:53:14;;;;;;;11.77;5.63;;;;;;;12.62;100.00;100000.44;5010086;28;20494;-73
2023/04/16 02:55:39;;;;;;;17.27;6.47;;;;;;;12.62;100.00;100016.00;5010334;28;20022;-70
2023/04/16 02:58:05;;;;;;;13.25;6.20;;;;;;;12.67;100.00;100030.75;5010543;28;20085;-74
2023/04/16 03:00:30;;;;;;;12.57;5.63;;;;;;;12.67;100.00;100034.19;5012767;28;20403;-73
2023/04/16 03:02:56;;;;;;;12.02;5.30;;;;;;;12.38;100.00;99989.56;5013830;28;20022;-72
2023/04/16 03:05:21;;;;;;;10.88;6.00;;;;;;;12.58;100.00;100028.81;5013763;28;20053;-71
2023/04/16 03:07:46;;;;;;;11.55;5.57;;;;;;;12.57;100.00;100043.50;5013982;28;20026;-71
2023/04/16 03:10:12;;;;;;;12.93;5.25;;;;;;;12.32;100.00;100013.59;5013852;28;20064;-73
2023/04/16 03:12:38;;;;;;;13.50;5.53;;;;;;;12.40;100.00;100027.59;5013726;28;20088;-73
2023/04/16 03:15:04;;;;;;;11.18;5.70;;;;;;;12.53;100.00;100051.16;5013775;28;20164;-71
2023/04/16 03:17:29;;;;;;;9.05;4.88;;;;;;;12.48;100.00;100047.59;5013699;28;20026;-73
2023/04/16 03:19:55;;;;;;;11.88;5.63;;;;;;;12.25;100.00;100030.69;5013322;28;20037;-73
2023/04/16 03:22:20;;;;;;;10.65;4.97;;;;;;;12.21;100.00;100015.94;5013752;28;20032;-77
2023/04/16 03:24:46;;;;;;;12.63;5.65;;;;;;;12.39;100.00;100051.72;5013524;28;20472;-73
2023/04/16 03:27:11;;;;;;;15.75;6.00;;;;;;;12.34;100.00;100052.47;5013258;28;20488;-71
2023/04/16 03:29:37;;;;;;;15.23;6.15;;;;;;;12.35;100.00;100043.84;5013370;28;20029;-73
2023/04/16 03:32:03;;;;;;;17.52;6.63;;;;;;;12.43;100.00;100056.13;5013207;28;20068;-74
2023/04/16 03:34:28;;;;;;;11.80;5.80;;;;;;;12.36;100.00;100030.06;5013071;28;20107;-72
2023/04/16 03:36:53;;;;;;;11.77;5.88;;;;;;;12.54;100.00;100052.91;5013362;28;20381;-73
2023/04/16 03:39:19;;;;;;;14.27;6.03;;;;;;;12.43;100.00;100053.53;5013416;28;20041;-71
2023/04/16 03:41:45;;;;;;;16.00;6.43;;;;;;;12.33;100.00;100061.06;5010871;28;20034;-72
2023/04/16 03:44:10;;;;;;;11.43;5.47;;;;;;;12.35;100.00;100059.38;5013183;28;20462;-70
2023/04/16 03:46:35;;;;;;;17.83;6.30;;;;;;;12.23;100.00;100040.13;5013013;28;20028;-72
2023/04/16 03:49:01;;;;;;;14.43;5.85;;;;;;;12.32;100.00;100055.00;5012288;28;20048;-70
2023/04/16 03:51:26;;;;;;;15.50;6.45;;;;;;;12.24;100.00;100059.13;5012896;28;20050;-71
2023/04/16 03:53:52;;;;;;;14.48;6.63;;;;;;;12.10;100.00;100070.03;5013090;28;20085;-74
2023/04/16 03:56:17;;;;;;;11.00;6.50;;;;;;;11.90;100.00;100074.69;5012126;28;20047;-72
2023/04/16 03:58:43;;;;;;;21.08;8.65;;;;;;;11.88;100.00;100058.25;5013355;28;20092;-69
2023/04/16 04:01:08;;;;;;;10.32;6.32;;;;;;;11.95;100.00;100067.91;5013038;28;20029;-73
2023/04/16 04:03:34;;;;;;;13.18;6.32;;;;;;;11.79;100.00;100029.56;5013017;28;20080;-72
2023/04/16 04:05:59;;;;;;;14.57;6.57;;;;;;;12.08;100.00;100071.69;5013012;28;20483;-69
2023/04/16 04:08:25;;;;;;;14.00;5.90;;;;;;;11.94;100.00;100037.69;5012833;28;20036;-69
2023/04/16 04:10:50;;;;;;;13.15;6.05;;;;;;;12.22;100.00;100059.09;5012761;28;20447;-69
2023/04/16 04:13:16;;;;;;;12.30;6.57;;;;;;;12.23;100.00;100065.16;5012629;28;20513;-69
2023/04/16 04:15:42;;;;;;;13.77;6.82;;;;;;;11.98;100.00;100010.22;5012510;28;20053;-69
2023/04/16 04:18:08;;;;;;;13.98;7.68;;;;;;;12.22;100.00;100047.88;5012234;28;20068;-73
2023/04/16 04:20:33;;;;;;;17.90;8.35;;;;;;;12.25;100.00;100060.88;5012670;28;20042;-73
2023/04/16 04:22:59;;;;;;;15.15;10.15;;;;;;;12.27;100.00;100054.91;5012599;28;20109;-72
2023/04/16 04:25:24;;;;;;;13.63;9.77;;;;;;;12.20;100.00;100052.13;5011402;28;20466;-71
2023/04/16 04:27:50;;;;;;;16.52;7.65;;;;;;;12.16;100.00;100051.16;5012459;28;20029;-69
2023/04/16 04:30:15;;;;;;;14.57;7.07;;;;;;;12.15;100.00;100059.81;5012279;28;20480;-72
2023/04/16 04:32:40;;;;;;;14.85;7.28;;;;;;;12.20;100.00;100086.66;5011989;28;20034;-71
2023/04/16 04:35:06;;;;;;;15.38;7.68;;;;;;;12.21;100.00;100082.34;5011916;28;20033;-72
2023/04/16 04:37:32;;;;;;;14.85;8.07;;;;;;;12.25;100.00;100077.28;5012070;28;20034;-69
2023/04/16 04:39:57;;;;;;;19.35;8.07;;;;;;;12.38;100.00;100096.56;5012059;28;20092;-71
2023/04/16 04:42:23;;;;;;;15.35;8.73;;;;;;;12.43;100.00;100105.31;5012234;28;20526;-70
2023/04/16 04:44:48;;;;;;;15.82;9.13;;;;;;;12.51;100.00;100097.75;5011802;28;20034;-73
2023/04/16 04:47:14;;;;;;;14.57;8.90;;;;;;;12.53;100.00;100090.88;5011934;28;20033;-73
2023/04/16 04:49:39;;;;;;;17.83;9.85;;;;;;;12.67;100.00;100098.06;5012230;28;20026;-72
2023/04/16 04:52:05;;;;;;;18.60;8.52;;;;;;;12.75;100.00;100094.81;5011655;28;20416;-70
2023/04/16 04:54:31;;;;;;;12.88;8.52;;;;;;;12.82;100.00;100103.59;5000565;28;20161;-72
2023/04/16 04:56:57;;;;;;;17.30;8.90;;;;;;;12.78;100.00;100086.22;4992273;28;20388;-73
2023/04/16 04:59:23;;;;;;;16.67;9.60;;;;;;;12.86;100.00;100097.66;4992297;28;20049;-70
2023/04/16 05:01:49;;;;;;;19.30;9.73;;;;;;;12.67;100.00;100075.63;4992005;28;20791;-71
2023/04/16 05:04:14;;;;;;;19.40;10.18;;;;;;;12.50;100.00;100053.66;4991406;28;20467;-71
2023/04/16 05:06:40;;;;;;;20.75;11.60;;;;;;;12.84;100.00;100095.88;5007507;28;20112;-70
2023/04/16 05:09:10;;;;;;;20.77;11.70;;;;;;;12.60;100.00;100045.28;5008304;28;20030;-70
2023/04/16 05:11:35;;;;;;;18.10;9.73;;;;;;;12.91;100.00;100084.75;4991813;28;20392;-71
2023/04/16 05:14:01;;;;;;;16.85;10.13;;;;;;;12.94;100.00;100087.44;4995281;28;20022;-69
2023/04/16 05:16:26;;;;;;;19.60;10.07;;;;;;;13.05;100.00;100101.50;5011572;28;20037;-70
2023/04/16 05:18:51;;;;;;;20.02;10.13;;;;;;;13.04;100.00;100091.97;5011249;28;20033;-69
2023/04/16 05:21:17;;;;;;;18.40;10.25;;;;;;;12.98;100.00;100103.94;5011206;28;20030;-71
2023/04/16 05:23:42;;;;;;;24.05;11.80;;;;;;;13.00;100.00;100102.25;5010533;28;20033;-71
2023/04/16 05:26:08;;;;;;;20.08;10.73;;;;;;;13.12;100.00;100102.47;5011256;28;20040;-72
2023/04/16 05:28:33;;;;;;;20.17;11.35;;;;;;;13.20;100.00;100090.56;5009511;28;20036;-72
2023/04/16 05:30:59;;;;;;;23.40;11.68;;;;;;;13.03;100.00;100046.16;5010579;28;20029;-76
2023/04/16 05:33:24;;;;;;;19.42;12.00;;;;;;;13.35;100.00;100091.72;5009820;28;20476;-73
2023/04/16 05:35:50;;;;;;;24.95;12.80;;;;;;;13.38;100.00;100078.84;5010307;28;20371;-72
2023/04/16 05:38:15;;;;;;;18.45;12.68;;;;;;;13.41;100.00;100077.19;5010586;28;20029;-70
2023/04/16 05:40:41;;;;;;;22.00;12.48;;;;;;;13.66;100.00;100090.59;5010519;28;20029;-72
2023/04/16 05:43:06;;;;;;;25.75;13.65;;;;;;;13.60;100.00;100080.13;5010523;28;20458;-70
2023/04/16 05:45:38;;;;;;;24.02;13.95;;;;;;;13.74;100.00;100095.94;5010711;28;20526;-72
2023/04/16 05:48:04;;;;;;;28.67;13.82;;;;;;;13.77;100.00;100096.00;5008170;28;20387;-70
2023/04/16 05:50:29;;;;;;;33.83;16.13;;;;;;;13.87;100.00;100097.03;5010547;28;20101;-70
2023/04/16 05:52:55;;;;;;;23.65;15.10;;;;;;;14.01;100.00;100098.13;5010154;28;20104;-72
2023/04/16 05:55:20;;;;;;;23.50;12.77;;;;;;;13.90;100.00;100059.00;5003511;28;20030;-71
2023/04/16 05:57:45;;;;;;;24.40;13.70;;;;;;;14.19;100.00;100082.00;5010962;28;20101;-73
2023/04/16 06:00:11;;;;;;;24.25;15.00;;;;;;;14.20;100.00;100083.72;5010631;28;20022;-72
2023/04/16 06:02:36;;;;;;;28.15;15.23;;;;;;;14.24;100.00;100082.94;5010705;28;20022;-74
2023/04/16 06:05:02;;;;;;;26.42;14.48;;;;;;;14.29;100.00;100088.19;5010730;28;20040;-71
2023/04/16 06:07:27;;;;;;;22.15;12.70;;;;;;;14.34;100.00;100081.38;5010928;28;20117;-73
2023/04/16 06:09:54;;;;;;;29.95;13.90;;;;;;;14.39;100.00;100079.72;5009416;28;20420;-74
2023/04/16 06:12:20;;;;;;;28.80;15.20;;;;;;;14.50;100.00;100082.44;5010485;28;20026;-71
2023/04/16 06:14:47;;;;;;;26.23;12.82;;;;;;;14.47;100.00;100073.75;5010540;28;20030;-70
2023/04/16 06:17:12;;;;;;;28.73;13.70;;;;;;;14.42;100.00;100057.22;5010693;28;20026;-70
2023/04/16 06:19:37;;;;;;;29.50;12.60;;;;;;;14.67;100.00;100102.66;5010690;28;20087;-71
2023/04/16 06:22:05;;;;;;;22.50;14.10;;;;;;;14.74;100.00;100093.22;5010717;28;20391;-74
2023/04/16 06:24:30;;;;;;;23.30;12.63;;;;;;;14.78;100.00;100092.38;5010492;28;20030;-75
2023/04/16 06:26:56;;;;;;;28.42;12.30;;;;;;;14.82;100.00;100089.00;5009801;28;20056;-72
2023/04/16 06:29:24;;;;;;;23.17;11.82;;;;;;;14.88;100.00;100094.28;5010263;28;20488;-70
2023/04/16 06:31:50;;;;;;;27.55;11.00;;;;;;;14.73;100.00;100055.97;5010253;28;20018;-72
2023/04/16 06:34:15;;;;;;;22.50;10.70;;;;;;;14.95;100.00;100090.03;5011005;28;20037;-74
2023/04/16 06:36:40;;;;;;;26.73;10.85;;;;;;;14.93;100.00;100076.13;5013989;28;20022;-73
2023/04/16 06:39:06;;;;;;;19.73;11.13;;;;;;;15.06;100.00;100088.44;5014479;28;20072;-70
2023/04/16 06:41:31;;;;;;;20.85;10.77;;;;;;;15.05;100.00;100071.06;5014144;28;20026;-73
2023/04/16 06:43:57;;;;;;;25.33;11.23;;;;;;;15.14;100.00;100091.13;5012986;28;20064;-73
2023/04/16 06:46:22;;;;;;;26.30;10.60;;;;;;;15.11;100.00;100083.28;5013878;28;20113;-76
2023/04/16 06:48:48;;;;;;;22.20;10.02;;;;;;;15.11;100.00;100086.75;5014196;28;20036;-68
2023/04/16 06:51:13;;;;;;;20.00;10.73;;;;;;;15.17;100.00;100099.84;5014015;28;20042;-71
2023/04/16 06:53:39;;;;;;;23.17;10.25;;;;;;;15.28;100.00;100099.09;5014041;28;20021;-71
2023/04/16 06:56:05;;;;;;;20.40;10.15;;;;;;;15.32;100.00;100096.53;5013814;28;20034;-69
2023/04/16 06:58:30;;;;;;;22.02;11.23;;;;;;;15.47;100.00;100100.19;5014225;28;20025;-70
2023/04/16 07:00:56;;;;;;;22.23;10.73;;;;;;;15.62;100.00;100094.28;5013476;28;20038;-72
2023/04/16 07:03:22;;;;;;;21.75;9.93;;;;;;;15.63;100.00;100096.03;5013830;28;20065;-69
2023/04/16 07:05:47;;;;;;;20.30;10.52;;;;;;;15.61;100.00;100095.97;5013724;28;20112;-71
2023/04/16 07:08:13;;;;;;;29.50;10.75;;;;;;;15.72;100.00;100101.31;5013843;28;20030;-69
2023/04/16 07:10:38;;;;;;;20.52;9.55;;;;;;;15.73;100.00;100103.06;5012405;28;20061;-72
2023/04/16 07:13:04;;;;;;;21.05;8.85;;;;;;;15.67;100.00;100090.84;5013617;28;20026;-69
2023/04/16 07:15:29;;;;;;;36.38;24.90;;;;;;;15.90;100.00;100104.97;5013403;28;20112;-69
2023/04/16 07:17:55;;;;;;;19.17;8.38;;;;;;;15.97;100.00;100093.75;5013497;28;20084;-71
2023/04/16 07:20:20;;;;;;;22.80;8.43;;;;;;;16.08;100.00;100102.53;5013102;28;20026;-72
2023/04/16 07:22:45;;;;;;;23.42;8.43;;;;;;;16.26;100.00;100093.13;5013435;28;20105;-70
2023/04/16 07:25:11;;;;;;;18.10;8.07;;;;;;;16.39;100.00;100099.31;5013472;28;20084;-70
2023/04/16 07:27:36;;;;;;;23.02;8.35;;;;;;;16.43;100.00;100075.88;5013281;28;20030;-73
2023/04/16 07:30:02;;;;;;;14.93;6.43;;;;;;;16.57;100.00;100099.41;5013033;28;20108;-69
2023/04/16 07:32:29;;;;;;;20.55;7.25;;;;;;;16.60;100.00;100098.59;5013221;28;20064;-75
2023/04/16 07:34:55;;;;;;;21.50;8.20;;;;;;;16.49;100.00;100083.72;5013005;28;20030;-74
2023/04/16 07:37:21;;;;;;;17.33;6.68;;;;;;;16.61;100.00;100082.06;5013268;28;20045;-74
2023/04/16 07:39:47;;;;;;;16.67;6.95;;;;;;;16.69;100.00;100095.16;5012550;28;20018;-70
2023/04/16 07:42:13;;;;;;;16.95;5.88;;;;;;;16.77;100.00;100091.72;5010425;28;20443;-69
2023/04/16 07:44:38;;;;;;;15.85;7.13;;;;;;;16.57;100.00;100054.25;5011390;28;20029;-68
2023/04/16 07:47:03;;;;;;;18.10;8.13;;;;;;;16.87;100.00;100083.94;5012777;28;20029;-72
2023/04/16 07:49:29;;;;;;;21.55;7.57;;;;;;;16.78;100.00;100070.00;5012788;28;20084;-69
2023/04/16 07:51:55;;;;;;;15.98;6.65;;;;;;;16.86;100.00;100085.69;5012454;28;20054;-72
2023/04/16 07:54:20;;;;;;;18.02;7.30;;;;;;;16.83;100.00;100085.66;5011960;28;20477;-71
2023/04/16 07:56:46;;;;;;;21.88;6.90;;;;;;;16.63;100.00;100044.72;5012135;28;20480;-69
2023/04/16 07:59:11;;;;;;;17.75;6.82;;;;;;;16.87;100.00;100081.34;5011707;28;20034;-71
2023/04/16 08:01:36;;;;;;;15.15;6.30;;;;;;;16.87;100.00;100084.81;5012079;28;20025;-73
2023/04/16 08:04:02;;;;;;;18.05;6.65;;;;;;;16.89;100.00;100098.72;5012053;28;20022;-73
2023/04/16 08:06:27;;;;;;;19.35;7.47;;;;;;;16.87;100.00;100086.56;5011702;28;20033;-72
2023/04/16 08:08:55;;;;;;;18.88;6.53;;;;;;;16.61;100.00;100059.50;5011439;28;20040;-70
2023/04/16 08:11:20;;;;;;;15.95;6.35;;;;;;;16.81;100.00;100087.41;5011618;28;20036;-72
2023/04/16 08:13:46;;;;;;;17.50;7.47;;;;;;;16.75;100.00;100087.38;5012497;28;20022;-72
2023/04/16 08:16:12;;;;;;;15.32;7.43;;;;;;;16.61;100.00;100080.34;5012793;28;20037;-72
2023/04/16 08:18:37;;;;;;;20.95;8.68;;;;;;;16.39;100.00;100074.13;5012408;28;20129;-69
2023/04/16 08:21:03;;;;;;;19.38;9.45;;;;;;;16.24;100.00;100077.47;5012797;28;20022;-72
2023/04/16 08:23:28;;;;;;;18.83;7.13;;;;;;;16.25;100.00;100068.81;5012262;28;20080;-71
2023/04/16 08:25:54;;;;;;;17.55;7.25;;;;;;;15.90;100.00;100004.34;5012344;28;20468;-72
2023/04/16 08:28:20;;;;;;;26.02;8.52;;;;;;;16.29;100.00;100073.19;5011901;28;20390;-72
2023/04/16 08:30:45;;;;;;;19.83;10.20;;;;;;;16.18;100.00;100038.38;5012612;28;20026;-71
2023/04/16 08:33:12;;;;;;;24.77;13.15;;;;;;;16.43;100.00;100072.41;5012568;28;20040;-72
2023/04/16 08:35:41;;;;;;;15.05;8.65;;;;;;;16.48;100.00;100074.16;5012402;28;20049;-72
2023/04/16 08:38:06;;;;;;;17.92;8.05;;;;;;;16.48;100.00;100070.69;5012352;28;20057;-71
2023/04/16 08:40:37;;;;;;;13.68;7.50;;;;;;;16.37;100.00;100077.56;5012289;28;20167;-72
2023/04/16 08:43:07;;;;;;;13.00;6.68;;;;;;;16.36;100.00;100079.28;5011631;28;20034;-73
2023/04/16 08:45:34;;;;;;;15.35;8.88;;;;;;;16.36;100.00;100070.63;5012319;28;20025;-72
2023/04/16 08:48:03;;;;;;;18.85;13.90;;;;;;;16.45;100.00;100065.47;5011824;28;20479;-73
2023/04/16 08:50:32;;;;;;;21.33;14.00;;;;;;;16.48;100.00;100073.31;5011789;28;20104;-72
2023/04/16 08:53:00;;;;;;;13.82;7.88;;;;;;;16.31;100.00;100062.75;5011527;28;20061;-73
2023/04/16 08:55:46;;;;;;;16.10;7.40;;;;;;;16.27;100.00;100068.81;5011939;28;20025;-69
2023/04/16 08:58:18;;;;;;;11.77;6.90;;;;;;;16.29;100.00;100070.56;5010846;28;20030;-69
2023/04/16 09:00:45;;;;;;;14.60;6.60;;;;;;;16.25;100.00;100066.22;5011825;28;20057;-72
2023/04/16 09:03:11;;;;;;;14.55;6.75;;;;;;;16.34;100.00;100070.63;5011220;28;20033;-75
2023/04/16 09:05:37;;;;;;;10.65;6.38;;;;;;;16.26;100.00;100059.25;5011746;28;20025;-73
2023/04/16 09:08:06;;;;;;;9.27;6.35;;;;;;;16.34;100.00;100070.63;5011820;28;20064;-69
2023/04/16 09:10:32;;;;;;;13.87;7.00;;;;;;;16.28;100.00;100066.22;5011740;28;20038;-70
2023/04/16 09:12:58;;;;;;;14.45;6.60;;;;;;;16.15;100.00;100040.97;5011262;28;20366;-73
2023/04/16 09:15:24;;;;;;;15.25;7.93;;;;;;;16.40;100.00;100070.66;5011611;28;20503;-71
2023/04/16 09:17:51;;;;;;;13.07;7.00;;;;;;;16.37;100.00;100054.13;5011481;28;20088;-71
2023/04/16 09:20:17;;;;;;;13.88;7.18;;;;;;;16.35;100.00;100056.72;5003249;28;20030;-72
2023/04/16 09:22:43;;;;;;;17.42;8.18;;;;;;;16.23;100.00;100026.25;5039526;28;20041;-69
2023/04/16 09:25:37;;;;;;;15.48;7.72;;;;;;;16.43;100.00;100044.59;5040956;28;20056;-72
2023/04/16 09:28:03;;;;;;;18.65;7.25;;;;;;;16.53;100.00;100050.75;5036390;28;20600;-73
2023/04/16 09:30:29;;;;;;;12.73;6.05;;;;;;;16.49;100.00;100044.66;5047534;28;20064;-74
2023/04/16 09:33:21;;;;;;;14.07;7.15;;;;;;;16.40;100.00;100052.41;5036674;28;20439;-72
2023/04/16 09:35:51;;;;;;;15.25;7.35;;;;;;;16.37;100.00;100039.34;5039637;28;20041;-76
2023/04/16 09:38:18;;;;;;;16.35;7.88;;;;;;;16.41;100.00;100040.25;5036826;28;20064;-74
2023/04/16 09:40:46;;;;;;;16.23;6.60;;;;;;;16.38;100.00;100046.31;5029599;28;20102;-76
2023/04/16 09:43:14;;;;;;;11.90;7.57;;;;;;;16.15;100.00;100001.91;5036142;28;20044;-77
2023/04/16 09:45:54;;;;;;;13.02;6.85;;;;;;;16.45;100.00;100042.91;5047081;28;20128;-77
2023/04/16 09:48:30;;;;;;;12.27;7.25;;;;;;;16.42;100.00;100035.03;5039043;28;20148;-72
2023/04/16 09:51:00;;;;;;;13.25;7.63;;;;;;;16.48;100.00;100036.81;5045051;28;20045;-74
2023/04/16 09:53:28;;;;;;;12.52;6.63;;;;;;;16.53;100.00;100049.88;5045015;28;20045;-73
2023/04/16 09:55:59;;;;;;;19.17;8.57;;;;;;;16.49;100.00;100049.84;5033749;28;20104;-75
2023/04/16 09:58:25;;;;;;;14.60;6.60;;;;;;;16.48;100.00;100036.81;5005142;28;20057;-77
2023/04/16 10:01:11;;;;;;;18.35;7.80;;;;;;;16.47;100.00;100027.25;5006852;28;20053;-74
2023/04/16 10:03:38;;;;;;;14.02;7.40;;;;;;;16.57;100.00;100046.44;5009731;28;20030;-72
2023/04/16 10:06:08;;;;;;;13.70;6.57;;;;;;;16.73;100.00;100044.78;5006327;28;20031;-73
2023/04/16 10:08:35;;;;;;;13.88;7.43;;;;;;;16.73;100.00;100031.75;5010522;28;20033;-72
2023/04/16 10:11:02;;;;;;;12.43;6.50;;;;;;;16.43;100.00;99958.63;5012895;28;20049;-72
2023/04/16 10:13:30;;;;;;;12.40;6.35;;;;;;;17.08;100.00;100044.09;5009088;28;20084;-71
2023/04/16 10:15:56;;;;;;;14.60;6.25;;;;;;;17.10;100.00;100043.22;5011267;28;20029;-74
2023/04/16 10:18:22;;;;;;;11.77;6.10;;;;;;;16.94;100.00;100024.03;5014568;28;20081;-72
2023/04/16 10:20:49;;;;;;;7.82;4.53;;;;;;;17.06;100.00;100036.25;5018402;28;20103;-74
2023/04/16 10:23:16;;;;;;;13.93;4.90;;;;;;;17.05;100.00;100028.44;5013904;28;20084;-73
2023/04/16 10:25:43;;;;;;;9.90;4.38;;;;;;;17.37;100.00;100052.00;5014314;28;20476;-72
2023/04/16 10:28:09;;;;;;;9.10;4.70;;;;;;;17.46;100.00;100046.78;5013570;28;20026;-73
2023/04/16 10:30:38;;;;;;;9.48;4.63;;;;;;;17.57;100.00;100053.75;5014147;28;20030;-73
2023/04/16 10:33:04;;;;;;;9.87;5.07;;;;;;;17.55;100.00;100048.53;5013620;28;20056;-75
2023/04/16 10:35:30;;;;;;;8.02;4.93;;;;;;;17.48;100.00;100044.19;5013693;28;20484;-73
2023/04/16 10:38:21;;;;;;;7.43;3.88;;;;;;;17.65;100.00;100066.84;5008406;28;20077;-74
2023/04/16 10:40:47;;;;;;;7.93;3.92;;;;;;;17.77;100.00;100059.88;5009081;28;20038;-74
2023/04/16 10:43:17;;;;;;;8.88;4.22;;;;;;;17.76;100.00;100070.34;5013573;28;20030;-72
2023/04/16 10:45:44;;;;;;;9.73;3.70;;;;;;;17.66;100.00;100066.84;5013144;28;20110;-75
2023/04/16 10:48:10;;;;;;;5.47;2.75;;;;;;;17.63;100.00;100062.50;5013662;28;20026;-73
2023/04/16 10:50:38;;;;;;;8.20;3.67;;;;;;;17.44;100.00;100045.03;5013387;28;20385;-75
2023/04/16 10:53:25;;;;;;;5.68;3.10;;;;;;;17.39;100.00;100044.16;5027259;28;20108;-72
2023/04/16 10:56:25;;;;;;;5.28;2.30;;;;;;;17.16;100.00;100058.03;5013394;28;20014;-77
2023/04/16 10:58:53;;;;;;;4.60;2.50;;;;;;;17.20;100.00;100053.69;5013390;28;20033;-72
2023/04/16 11:01:29;;;;;;;5.07;2.85;;;;;;;17.13;100.00;100053.69;5012779;28;20044;-74
2023/04/16 11:03:54;;;;;;;5.28;3.03;;;;;;;17.13;100.00;100035.41;5013411;28;20026;-71
2023/04/16 11:06:25;;;;;;;5.82;2.95;;;;;;;16.98;100.00;100044.06;5009124;28;20456;-72